Terminal Aerodrome Forecast
Issued by NWS

Current Version | Previous Version | Text Only | Print | Product List | Glossary On
Versions: 1 2 3 4 5 6 7 8 9 10 11 12 13 14
000
FTUS42 KGSP 292339 AAA
TAFGMU
TAF AMD
KGMU 292339Z 3000/3024 22005KT P6SM SCT250
     FM300600 22006KT P6SM BKN050
     FM301100 22009KT P6SM -SHRA OVC030
     FM301500 26007KT P6SM BKN040
     FM301700 27007KT P6SM SCT040=

USA.gov is the U.S. government's official web portal to all federal, state and local government web resources and services.